Search for airport 
image banner adimage banner ad
image banner ad

SSHZ - Walter Bündchen Airport

Located in Horizontina, Brazil

ICAO - SSHZ, IATA - HRZ

Data provided by Airmate  

General information

Coordinates: S27°38'18" W54°20'20"
Elevation is 1017 feet MSL.
Magnetic variation is -15° East
Rated:
View ratings: [VIEW]


View others Airports in Rio Grande do Sul

Operational data

Open for public use
Current time UTC:
Current local time:
Weather at : SBNM - Santo Ângelo Airport ( 73 km )
METAR: SBNM 032000Z 11006KT CAVOK 24/15 Q1023
View NOTAMs / SUP AIP / TFR affecting this airport [VIEW]
Communications frequencies: [VIEW]

Runways:

RWY identifierQFULength (ft)Width (ft)SurfaceLDA (ft)
15344559ASP
33344559ASP

Airport contact information

Address: Horizontina Brazil

Satellite view of SSHZ